sensor_id;sensor_type;location;lat;lon;timestamp;P1;durP1;ratioP1;P2;durP2;ratioP2
55995;SDS011;66897;51.012;4.634;2024-01-15T16:25:37;9.93;;;2.60;;
55995;SDS011;66897;51.012;4.634;2024-01-15T16:28:04;13.15;;;3.30;;
55995;SDS011;66897;51.012;4.634;2024-01-15T16:30:30;16.05;;;3.83;;
55995;SDS011;66897;51.012;4.634;2024-01-15T16:32:56;19.77;;;3.90;;
55995;SDS011;66897;51.012;4.634;2024-01-15T16:35:21;19.30;;;3.35;;
55995;SDS011;66897;51.012;4.634;2024-01-15T16:37:47;16.95;;;3.25;;
55995;SDS011;66897;51.012;4.634;2024-01-15T16:40:13;16.05;;;3.63;;
55995;SDS011;66897;51.012;4.634;2024-01-15T16:42:39;18.50;;;4.57;;
55995;SDS011;66897;51.012;4.634;2024-01-15T16:45:05;13.90;;;4.55;;
55995;SDS011;66897;51.012;4.634;2024-01-15T16:47:31;23.83;;;4.93;;
55995;SDS011;66897;51.012;4.634;2024-01-15T16:49:57;24.48;;;4.57;;
55995;SDS011;66897;51.012;4.634;2024-01-15T16:52:22;19.33;;;4.30;;
55995;SDS011;66897;51.012;4.634;2024-01-15T16:54:48;18.65;;;4.63;;
55995;SDS011;66897;51.012;4.634;2024-01-15T16:57:14;20.65;;;4.80;;
55995;SDS011;66897;51.012;4.634;2024-01-15T16:59:40;12.80;;;3.92;;
55995;SDS011;66897;51.012;4.634;2024-01-15T17:02:06;20.60;;;4.60;;
55995;SDS011;66897;51.012;4.634;2024-01-15T17:04:32;16.20;;;4.45;;
55995;SDS011;66897;51.012;4.634;2024-01-15T17:06:57;25.13;;;5.00;;
55995;SDS011;66897;51.012;4.634;2024-01-15T17:09:23;18.42;;;4.53;;
55995;SDS011;66897;51.012;4.634;2024-01-15T17:11:49;28.33;;;4.57;;
55995;SDS011;66897;51.012;4.634;2024-01-15T17:14:14;19.75;;;4.60;;
55995;SDS011;66897;51.012;4.634;2024-01-15T17:16:42;43.22;;;5.68;;
55995;SDS011;66897;51.012;4.634;2024-01-15T17:19:07;22.65;;;6.20;;
55995;SDS011;66897;51.012;4.634;2024-01-15T17:21:33;28.80;;;6.25;;
55995;SDS011;66897;51.012;4.634;2024-01-15T17:23:59;27.13;;;8.38;;
55995;SDS011;66897;51.012;4.634;2024-01-15T17:26:25;35.50;;;9.35;;
55995;SDS011;66897;51.012;4.634;2024-01-15T17:28:51;29.30;;;8.63;;
55995;SDS011;66897;51.012;4.634;2024-01-15T17:31:17;26.33;;;8.30;;
55995;SDS011;66897;51.012;4.634;2024-01-15T17:33:42;22.80;;;7.38;;
55995;SDS011;66897;51.012;4.634;2024-01-15T17:36:08;21.15;;;8.02;;
55995;SDS011;66897;51.012;4.634;2024-01-15T17:38:34;29.95;;;8.63;;
55995;SDS011;66897;51.012;4.634;2024-01-15T17:41:00;25.60;;;6.57;;
55995;SDS011;66897;51.012;4.634;2024-01-15T17:43:26;19.75;;;6.13;;
55995;SDS011;66897;51.012;4.634;2024-01-15T17:45:52;17.15;;;6.85;;
55995;SDS011;66897;51.012;4.634;2024-01-15T17:48:20;22.00;;;5.97;;
55995;SDS011;66897;51.012;4.634;2024-01-15T17:50:46;20.48;;;6.45;;
55995;SDS011;66897;51.012;4.634;2024-01-15T17:53:12;15.82;;;6.53;;
55995;SDS011;66897;51.012;4.634;2024-01-15T17:55:38;17.45;;;6.25;;
55995;SDS011;66897;51.012;4.634;2024-01-15T17:58:04;15.38;;;6.00;;
55995;SDS011;66897;51.012;4.634;2024-01-15T18:00:31;17.80;;;5.47;;
55995;SDS011;66897;51.012;4.634;2024-01-15T18:02:57;14.60;;;5.32;;
55995;SDS011;66897;51.012;4.634;2024-01-15T18:05:22;14.05;;;4.85;;
55995;SDS011;66897;51.012;4.634;2024-01-15T18:07:48;17.25;;;5.68;;
55995;SDS011;66897;51.012;4.634;2024-01-15T18:10:14;17.52;;;4.72;;
55995;SDS011;66897;51.012;4.634;2024-01-15T18:12:39;16.55;;;5.35;;
55995;SDS011;66897;51.012;4.634;2024-01-15T18:15:06;15.48;;;5.22;;
55995;SDS011;66897;51.012;4.634;2024-01-15T18:17:32;15.45;;;3.85;;
55995;SDS011;66897;51.012;4.634;2024-01-15T18:20:01;13.50;;;4.40;;
55995;SDS011;66897;51.012;4.634;2024-01-15T18:22:27;19.52;;;5.03;;
55995;SDS011;66897;51.012;4.634;2024-01-15T18:24:53;16.95;;;4.78;;
55995;SDS011;66897;51.012;4.634;2024-01-15T18:27:19;15.40;;;4.85;;
55995;SDS011;66897;51.012;4.634;2024-01-15T18:29:44;15.32;;;5.53;;
55995;SDS011;66897;51.012;4.634;2024-01-15T18:32:10;19.48;;;5.45;;
55995;SDS011;66897;51.012;4.634;2024-01-15T18:34:36;20.02;;;7.28;;
55995;SDS011;66897;51.012;4.634;2024-01-15T18:37:02;20.55;;;7.03;;
55995;SDS011;66897;51.012;4.634;2024-01-15T18:39:28;13.90;;;6.30;;
55995;SDS011;66897;51.012;4.634;2024-01-15T18:41:54;22.88;;;6.88;;
55995;SDS011;66897;51.012;4.634;2024-01-15T18:44:20;17.42;;;6.45;;
55995;SDS011;66897;51.012;4.634;2024-01-15T18:46:46;15.32;;;7.07;;
55995;SDS011;66897;51.012;4.634;2024-01-15T18:49:12;13.23;;;7.45;;
55995;SDS011;66897;51.012;4.634;2024-01-15T18:51:38;28.30;;;9.70;;
55995;SDS011;66897;51.012;4.634;2024-01-15T18:54:04;37.05;;;13.63;;
55995;SDS011;66897;51.012;4.634;2024-01-15T18:56:30;28.10;;;13.48;;
55995;SDS011;66897;51.012;4.634;2024-01-15T18:58:56;44.63;;;20.42;;
55995;SDS011;66897;51.012;4.634;2024-01-15T19:01:28;41.58;;;20.23;;
55995;SDS011;66897;51.012;4.634;2024-01-15T19:03:55;41.08;;;22.85;;
55995;SDS011;66897;51.012;4.634;2024-01-15T19:06:22;56.70;;;26.65;;
55995;SDS011;66897;51.012;4.634;2024-01-15T19:08:48;49.67;;;26.27;;
55995;SDS011;66897;51.012;4.634;2024-01-15T19:11:15;43.72;;;21.85;;
55995;SDS011;66897;51.012;4.634;2024-01-15T19:13:41;39.22;;;20.77;;
55995;SDS011;66897;51.012;4.634;2024-01-15T19:16:06;43.40;;;22.42;;
55995;SDS011;66897;51.012;4.634;2024-01-15T19:18:32;41.53;;;21.02;;
55995;SDS011;66897;51.012;4.634;2024-01-15T19:20:59;36.78;;;20.77;;
55995;SDS011;66897;51.012;4.634;2024-01-15T19:23:30;39.97;;;20.17;;
55995;SDS011;66897;51.012;4.634;2024-01-15T19:25:56;42.28;;;19.20;;
55995;SDS011;66897;51.012;4.634;2024-01-15T19:28:22;32.47;;;16.65;;
55995;SDS011;66897;51.012;4.634;2024-01-15T19:30:48;43.47;;;15.98;;
55995;SDS011;66897;51.012;4.634;2024-01-15T19:33:15;36.33;;;15.27;;
55995;SDS011;66897;51.012;4.634;2024-01-15T19:35:41;33.13;;;13.90;;
55995;SDS011;66897;51.012;4.634;2024-01-15T19:38:06;26.08;;;12.55;;
55995;SDS011;66897;51.012;4.634;2024-01-15T19:40:32;31.58;;;12.73;;
55995;SDS011;66897;51.012;4.634;2024-01-15T19:42:59;32.83;;;10.65;;
55995;SDS011;66897;51.012;4.634;2024-01-15T19:45:26;27.23;;;11.82;;
55995;SDS011;66897;51.012;4.634;2024-01-15T19:47:55;38.13;;;12.20;;
55995;SDS011;66897;51.012;4.634;2024-01-15T19:50:21;32.22;;;10.82;;
55995;SDS011;66897;51.012;4.634;2024-01-15T19:52:47;36.58;;;8.43;;
55995;SDS011;66897;51.012;4.634;2024-01-15T19:55:13;32.45;;;8.13;;
55995;SDS011;66897;51.012;4.634;2024-01-15T19:57:39;28.08;;;7.78;;
55995;SDS011;66897;51.012;4.634;2024-01-15T20:00:05;22.92;;;8.52;;
55995;SDS011;66897;51.012;4.634;2024-01-15T20:02:34;31.85;;;8.30;;
55995;SDS011;66897;51.012;4.634;2024-01-15T20:05:00;29.83;;;8.10;;
55995;SDS011;66897;51.012;4.634;2024-01-15T20:07:26;20.73;;;7.55;;
55995;SDS011;66897;51.012;4.634;2024-01-15T20:09:52;22.23;;;8.32;;
55995;SDS011;66897;51.012;4.634;2024-01-15T20:12:18;32.55;;;8.95;;
55995;SDS011;66897;51.012;4.634;2024-01-15T20:14:45;29.45;;;8.95;;
55995;SDS011;66897;51.012;4.634;2024-01-15T20:17:11;33.25;;;7.60;;
55995;SDS011;66897;51.012;4.634;2024-01-15T20:19:38;30.13;;;8.32;;
55995;SDS011;66897;51.012;4.634;2024-01-15T20:22:03;39.50;;;9.13;;
55995;SDS011;66897;51.012;4.634;2024-01-15T20:24:29;29.77;;;7.93;;
55995;SDS011;66897;51.012;4.634;2024-01-15T20:26:55;23.55;;;7.57;;
55995;SDS011;66897;51.012;4.634;2024-01-15T20:29:20;30.85;;;7.28;;
55995;SDS011;66897;51.012;4.634;2024-01-15T20:31:46;26.85;;;8.15;;
55995;SDS011;66897;51.012;4.634;2024-01-15T20:34:12;25.40;;;6.72;;
55995;SDS011;66897;51.012;4.634;2024-01-15T20:36:38;23.27;;;6.90;;
55995;SDS011;66897;51.012;4.634;2024-01-15T20:39:04;29.23;;;7.15;;
55995;SDS011;66897;51.012;4.634;2024-01-15T20:41:29;32.47;;;7.28;;
55995;SDS011;66897;51.012;4.634;2024-01-15T20:43:55;22.65;;;6.68;;
55995;SDS011;66897;51.012;4.634;2024-01-15T20:46:21;27.05;;;7.47;;
55995;SDS011;66897;51.012;4.634;2024-01-15T20:48:47;17.20;;;6.07;;
55995;SDS011;66897;51.012;4.634;2024-01-15T20:51:14;20.95;;;6.60;;
55995;SDS011;66897;51.012;4.634;2024-01-15T20:53:40;34.85;;;6.43;;
55995;SDS011;66897;51.012;4.634;2024-01-15T20:56:09;21.35;;;5.82;;
55995;SDS011;66897;51.012;4.634;2024-01-15T20:58:35;22.45;;;6.20;;
55995;SDS011;66897;51.012;4.634;2024-01-15T21:01:03;28.25;;;7.30;;
55995;SDS011;66897;51.012;4.634;2024-01-15T21:03:29;22.27;;;5.63;;
55995;SDS011;66897;51.012;4.634;2024-01-15T21:05:55;29.30;;;6.18;;
55995;SDS011;66897;51.012;4.634;2024-01-15T21:08:22;25.02;;;6.45;;
55995;SDS011;66897;51.012;4.634;2024-01-15T21:10:47;19.95;;;5.60;;
55995;SDS011;66897;51.012;4.634;2024-01-15T21:13:13;21.52;;;5.60;;
55995;SDS011;66897;51.012;4.634;2024-01-15T21:15:39;23.05;;;4.97;;
55995;SDS011;66897;51.012;4.634;2024-01-15T21:18:04;21.52;;;5.60;;
55995;SDS011;66897;51.012;4.634;2024-01-15T21:20:31;23.75;;;5.68;;
55995;SDS011;66897;51.012;4.634;2024-01-15T21:22:57;15.48;;;4.53;;
55995;SDS011;66897;51.012;4.634;2024-01-15T21:25:23;20.67;;;6.00;;
55995;SDS011;66897;51.012;4.634;2024-01-15T21:27:48;31.52;;;6.03;;
55995;SDS011;66897;51.012;4.634;2024-01-15T21:30:14;21.33;;;5.15;;
55995;SDS011;66897;51.012;4.634;2024-01-15T21:32:40;27.80;;;5.40;;
55995;SDS011;66897;51.012;4.634;2024-01-15T21:35:06;27.50;;;5.25;;
55995;SDS011;66897;51.012;4.634;2024-01-15T21:37:32;17.52;;;4.90;;
55995;SDS011;66897;51.012;4.634;2024-01-15T21:39:58;18.88;;;4.97;;
55995;SDS011;66897;51.012;4.634;2024-01-15T21:42:24;23.17;;;5.20;;
55995;SDS011;66897;51.012;4.634;2024-01-15T21:44:50;19.63;;;5.25;;
55995;SDS011;66897;51.012;4.634;2024-01-15T21:47:15;20.55;;;5.00;;
55995;SDS011;66897;51.012;4.634;2024-01-15T21:49:41;22.13;;;5.18;;
55995;SDS011;66897;51.012;4.634;2024-01-15T21:52:08;20.17;;;5.07;;
55995;SDS011;66897;51.012;4.634;2024-01-15T21:54:34;23.85;;;5.95;;
55995;SDS011;66897;51.012;4.634;2024-01-15T21:57:00;24.65;;;5.00;;
55995;SDS011;66897;51.012;4.634;2024-01-15T21:59:25;16.10;;;5.40;;
55995;SDS011;66897;51.012;4.634;2024-01-15T22:01:51;19.02;;;5.95;;
55995;SDS011;66897;51.012;4.634;2024-01-15T22:04:20;21.25;;;6.38;;
55995;SDS011;66897;51.012;4.634;2024-01-15T22:06:47;19.65;;;5.45;;
55995;SDS011;66897;51.012;4.634;2024-01-15T22:09:12;21.48;;;5.82;;
55995;SDS011;66897;51.012;4.634;2024-01-15T22:11:38;14.20;;;5.03;;
55995;SDS011;66897;51.012;4.634;2024-01-15T22:14:04;24.33;;;6.22;;
55995;SDS011;66897;51.012;4.634;2024-01-15T22:16:29;15.07;;;5.53;;
55995;SDS011;66897;51.012;4.634;2024-01-15T22:18:55;22.67;;;6.45;;
55995;SDS011;66897;51.012;4.634;2024-01-15T22:21:21;21.50;;;5.63;;
55995;SDS011;66897;51.012;4.634;2024-01-15T22:23:47;15.65;;;5.63;;
55995;SDS011;66897;51.012;4.634;2024-01-15T22:26:12;23.58;;;6.07;;
55995;SDS011;66897;51.012;4.634;2024-01-15T22:28:38;34.90;;;7.57;;
55995;SDS011;66897;51.012;4.634;2024-01-15T22:31:04;21.10;;;5.63;;
55995;SDS011;66897;51.012;4.634;2024-01-15T22:33:30;17.83;;;5.18;;
55995;SDS011;66897;51.012;4.634;2024-01-15T22:35:56;24.38;;;5.80;;
55995;SDS011;66897;51.012;4.634;2024-01-15T22:38:22;23.75;;;6.20;;
55995;SDS011;66897;51.012;4.634;2024-01-15T22:40:47;20.38;;;5.00;;
55995;SDS011;66897;51.012;4.634;2024-01-15T22:43:13;25.58;;;5.45;;
55995;SDS011;66897;51.012;4.634;2024-01-15T22:45:39;19.52;;;5.10;;
55995;SDS011;66897;51.012;4.634;2024-01-15T22:48:04;18.00;;;5.35;;
55995;SDS011;66897;51.012;4.634;2024-01-15T22:50:30;22.02;;;5.32;;
55995;SDS011;66897;51.012;4.634;2024-01-15T22:52:56;14.05;;;4.80;;
55995;SDS011;66897;51.012;4.634;2024-01-15T22:55:22;25.52;;;5.78;;
55995;SDS011;66897;51.012;4.634;2024-01-15T22:57:47;26.95;;;5.25;;
55995;SDS011;66897;51.012;4.634;2024-01-15T23:00:13;14.15;;;4.55;;
55995;SDS011;66897;51.012;4.634;2024-01-15T23:02:46;22.50;;;6.25;;
55995;SDS011;66897;51.012;4.634;2024-01-15T23:05:12;20.98;;;4.80;;
55995;SDS011;66897;51.012;4.634;2024-01-15T23:07:37;26.25;;;6.13;;
55995;SDS011;66897;51.012;4.634;2024-01-15T23:10:05;22.55;;;6.00;;
55995;SDS011;66897;51.012;4.634;2024-01-15T23:12:35;12.82;;;5.60;;
55995;SDS011;66897;51.012;4.634;2024-01-15T23:15:01;13.85;;;5.07;;
55995;SDS011;66897;51.012;4.634;2024-01-15T23:17:29;25.70;;;5.88;;
55995;SDS011;66897;51.012;4.634;2024-01-15T23:19:55;21.63;;;5.25;;
55995;SDS011;66897;51.012;4.634;2024-01-15T23:22:21;24.00;;;6.25;;
55995;SDS011;66897;51.012;4.634;2024-01-15T23:24:46;21.67;;;5.45;;
55995;SDS011;66897;51.012;4.634;2024-01-15T23:27:12;15.48;;;5.65;;
55995;SDS011;66897;51.012;4.634;2024-01-15T23:29:38;25.85;;;5.30;;
55995;SDS011;66897;51.012;4.634;2024-01-15T23:32:04;20.70;;;5.53;;
55995;SDS011;66897;51.012;4.634;2024-01-15T23:34:29;23.15;;;5.38;;
55995;SDS011;66897;51.012;4.634;2024-01-15T23:36:55;17.13;;;5.22;;
55995;SDS011;66897;51.012;4.634;2024-01-15T23:39:21;20.75;;;5.57;;
55995;SDS011;66897;51.012;4.634;2024-01-15T23:41:47;19.65;;;5.18;;
55995;SDS011;66897;51.012;4.634;2024-01-15T23:44:13;20.02;;;4.53;;
55995;SDS011;66897;51.012;4.634;2024-01-15T23:46:38;24.88;;;5.63;;
55995;SDS011;66897;51.012;4.634;2024-01-15T23:49:04;13.77;;;4.38;;
55995;SDS011;66897;51.012;4.634;2024-01-15T23:51:30;16.23;;;5.13;;
55995;SDS011;66897;51.012;4.634;2024-01-15T23:53:56;18.88;;;5.20;;
55995;SDS011;66897;51.012;4.634;2024-01-15T23:56:21;15.82;;;4.80;;
55995;SDS011;66897;51.012;4.634;2024-01-15T23:58:47;25.67;;;5.65;;
